CYXH

Medicine Hat Airport

Medicine Hat, Alberta, Canada
METAR CYXH 230700Z AUTO 21006KT 9SM CLR M18/M20 A3020 RMK ICG INTMT SLP288
Observed Flight Rules
Feb-23 @ 07:00 UTC (an hour ago) Visual Flight Rules
Wind Visibility Clouds
210° at 6 knots 9 miles
  • Clear skies
Temperatures Readings
Current -18°C / 0°F
Dewpoint -20°C / -4°F
Humidity 84%
Altimeter 30.2" Hg
Pressure 1028.8 hPa
Elevation 716
METAR CYXH 230700Z AUTO 21006KT 9SM CLR M18/M20 A3020 RMK ICG INTMT SLP288
Observed Flight Rules
Feb-23 @ 07:00 UTC
(an hour ago)
VFR
Wind Visibility
210° at 6 knots 9 miles
Clouds
  • Clear skies
Temperature Dewpoint
-18°C / 0°F -20°C / -4°F
Humidity Altimeter Pressure
84% 30.2" Hg 1028.8 hPa